Halma, MN

12:52 PM CDT on July 29, 2016 (GMT -0500)
Hallock Municipal | | Change Station

Elev 820 ft 48.75 °N, 96.94 °W | Updated 18 minutes ago

Scattered Clouds
Scattered Clouds
73 °F
Feels Like 73 °F
N
0
Wind Variable Wind from North

Today
High -- | Low -- °F
--% Chance of Precip.
Yesterday
High -- | Low -- °F
Precip. -- in
Pressure 30.07 in
Visibility 10.0 miles
Clouds Scattered Clouds 3900 ft
Dew Point 55 °F
Humidity 53%
Rainfall 0.00 in
Snow Depth Not available.
5:57 AM 9:07 PM
Waning Crescent, 20% visible
METAR KHCO 291734Z AUTO 00000KT 10SM SCT039 23/13 A3007 RMK AO2
Pressure 30.07 in
Visibility 10.0 miles
Clouds Scattered Clouds 3900 ft
Dew Point 55 °F
Humidity 53%
Rainfall 0.00 in
Snow Depth Not available.
5:57 AM 9:07 PM
Waning Crescent, 20% visible
METAR KHCO 291734Z AUTO 00000KT 10SM SCT039 23/13 A3007 RMK AO2

10-Day Weather Forecast

Almanac

Astronomy

Jul. 29, 2016 Rise Set
Actual Time
Civil Twilight
Nautical Twilight
Astronomical Twilight
Moon
Length of Visible Light
Length of Day
Tomorrow will be .
, % of the Moon is Illuminated

Today's Extremes

State Highs State Lows

Community

WunderPhotos

Upload Photos

1,928,382 photos uploaded!

WunderBlog® & News

Nearby

Air Quality

  Air Quality AQ Index Pollutant
Not available.

Snow Depth

Station Depth Elevation

Earthquake Activity

City Distance Mag. Time & Date
Minimum magnitude displayed is 2.5.

Coastal Water Temperatures

Place Temperature

Stations

Nearby Weather Stations

Station Location Temp. Windchill Dew Point Humidity Wind Precip. Elev Updated Type
                   

Watches & Warnings

There are currently no watches in effect.